Greenville, Virginia
Current Conditions -  °F | °C
As of 10:35 PM on Friday 31 Oct 2014 (Local Time) from KW13 Reporting Station
Overcast Overcast  
Wind Chill: 43°   Ceiling: 2800
Heat Index: 43°   Visibility: 7mi
Dew Point: 41°   Wind: 0mph
Humidity: 91%   Direction: NA
Pressure: 29.83"   Gusts: NA
Location:  38°N, 79.16°W
Report Text: KW13 010235Z AUTO 00000KT 7SM OVC028 06/05 A2983 RMK AO1 P0001 T00630049
Loading
Personal Weather Stations






























Interactive Weather Map
Tropical Storm Tracking
New forecast layout! Learn more

10-Day Weather Forecast

Advertisements
Track Severe Weather on mobile